BAW121 EGKK-EGCC
Flight info
| Callsign | BAW121 |
|---|---|
| Flight time | N/A |
| Altitude | 24000 |
| Route | LAM N57 WELIN T420 TNT DCT QUSHI DCT DAYNE |
| Aircraft | A320/M-SDE3FGHIRWY/LB1 |
Departure
| Time | 2026-04-16 11:44 |
|---|---|
| Airport | London Gatwick Airport (EGKK) |
Arrival
| Time | N/A |
|---|---|
| Airport | Manchester Airport (EGCC) |
| Time | Latitude | Longitude | Altitude | Speed | Heading |
|---|---|---|---|---|---|
| 2026-04-16 11:14 | 51.15829 | -0.16947 | 205 ft | 0 kts | 82° |
| 2026-04-16 11:31 | 51.15829 | -0.16952 | 205 ft | 2 kts | 82° |
| 2026-04-16 11:32 | 51.15827 | -0.16978 | 212 ft | 2 kts | 85° |
| 2026-04-16 11:32 | 51.15826 | -0.17004 | 205 ft | 2 kts | 90° |
| 2026-04-16 11:32 | 51.15827 | -0.17030 | 205 ft | 2 kts | 99° |
| 2026-04-16 11:32 | 51.15831 | -0.17056 | 205 ft | 2 kts | 124° |
| 2026-04-16 11:33 | 51.15844 | -0.17071 | 210 ft | 2 kts | 171° |
| 2026-04-16 11:33 | 51.15848 | -0.17072 | 208 ft | 0 kts | 175° |
| 2026-04-16 11:38 | 51.15818 | -0.17069 | 205 ft | 5 kts | 175° |
| 2026-04-16 11:38 | 51.15786 | -0.17064 | 205 ft | 8 kts | 174° |
| 2026-04-16 11:38 | 51.15698 | -0.17037 | 215 ft | 18 kts | 167° |
| 2026-04-16 11:38 | 51.15626 | -0.17141 | 208 ft | 20 kts | 257° |
| 2026-04-16 11:39 | 51.15596 | -0.17342 | 207 ft | 18 kts | 256° |
| 2026-04-16 11:39 | 51.15533 | -0.17427 | 205 ft | 11 kts | 177° |
| 2026-04-16 11:39 | 51.15453 | -0.17401 | 211 ft | 12 kts | 168° |
| 2026-04-16 11:39 | 51.15362 | -0.17370 | 211 ft | 13 kts | 169° |
| 2026-04-16 11:40 | 51.15267 | -0.17334 | 216 ft | 15 kts | 155° |
| 2026-04-16 11:40 | 51.15244 | -0.17218 | 208 ft | 0 kts | 80° |
| 2026-04-16 11:40 | 51.15245 | -0.17210 | 209 ft | 5 kts | 80° |
| 2026-04-16 11:41 | 51.15265 | -0.17055 | 212 ft | 20 kts | 77° |
| 2026-04-16 11:41 | 51.15287 | -0.16882 | 205 ft | 12 kts | 84° |
| 2026-04-16 11:41 | 51.15273 | -0.16829 | 215 ft | 0 kts | 137° |
| 2026-04-16 11:42 | 51.15271 | -0.16827 | 215 ft | 3 kts | 141° |
| 2026-04-16 11:42 | 51.15189 | -0.16788 | 210 ft | 11 kts | 165° |
| 2026-04-16 11:43 | 51.15186 | -0.16787 | 205 ft | 0 kts | 166° |
| 2026-04-16 11:43 | 51.15182 | -0.16786 | 204 ft | 4 kts | 167° |
| 2026-04-16 11:43 | 51.15111 | -0.16853 | 212 ft | 9 kts | 257° |
| 2026-04-16 11:43 | 51.15108 | -0.16887 | 203 ft | 14 kts | 260° |
| 2026-04-16 11:44 | 51.15018 | -0.17468 | 207 ft | 91 kts | 263° |
| 2026-04-16 11:44 | 51.14834 | -0.18852 | 286 ft | 155 kts | 255° |
| 2026-04-16 11:44 | 51.14608 | -0.20583 | 1168 ft | 159 kts | 255° |
| 2026-04-16 11:44 | 51.14388 | -0.22268 | 1994 ft | 154 kts | 253° |
| 2026-04-16 11:45 | 51.14123 | -0.23980 | 2495 ft | 167 kts | 252° |
| 2026-04-16 11:45 | 51.13825 | -0.25854 | 2915 ft | 182 kts | 252° |
| 2026-04-16 11:45 | 51.13510 | -0.27876 | 3335 ft | 196 kts | 253° |
| 2026-04-16 11:45 | 51.13197 | -0.30104 | 3802 ft | 214 kts | 262° |
| 2026-04-16 11:46 | 51.13319 | -0.32481 | 3986 ft | 220 kts | 285° |
| 2026-04-16 11:46 | 51.14065 | -0.34625 | 4011 ft | 226 kts | 308° |
| 2026-04-16 11:46 | 51.15328 | -0.36148 | 4012 ft | 234 kts | 332° |
| 2026-04-16 11:46 | 51.16930 | -0.36736 | 4009 ft | 241 kts | 357° |
| 2026-04-16 11:47 | 51.18585 | -0.36169 | 4008 ft | 249 kts | 25° |
| 2026-04-16 11:47 | 51.19940 | -0.34481 | 4009 ft | 249 kts | 52° |
| 2026-04-16 11:47 | 51.20685 | -0.32015 | 4007 ft | 249 kts | 81° |
| 2026-04-16 11:47 | 51.20708 | -0.29295 | 4009 ft | 246 kts | 99° |
| 2026-04-16 11:48 | 51.20518 | -0.26596 | 4009 ft | 245 kts | 100° |
| 2026-04-16 11:48 | 51.20320 | -0.23899 | 4008 ft | 245 kts | 100° |
| 2026-04-16 11:48 | 51.20237 | -0.21181 | 4013 ft | 247 kts | 84° |
| 2026-04-16 11:48 | 51.20555 | -0.18361 | 4012 ft | 274 kts | 80° |
| 2026-04-16 11:49 | 51.20948 | -0.15330 | 4010 ft | 281 kts | 79° |
| 2026-04-16 11:49 | 51.21358 | -0.12297 | 4372 ft | 279 kts | 79° |
| 2026-04-16 11:49 | 51.21773 | -0.09232 | 4885 ft | 284 kts | 79° |
| 2026-04-16 11:49 | 51.22187 | -0.06146 | 4994 ft | 285 kts | 79° |
| 2026-04-16 11:50 | 51.22598 | -0.03064 | 5005 ft | 284 kts | 79° |
| 2026-04-16 11:50 | 51.23005 | 0.00018 | 5004 ft | 284 kts | 80° |
| 2026-04-16 11:50 | 51.23406 | 0.03096 | 5011 ft | 285 kts | 79° |
| 2026-04-16 11:50 | 51.23804 | 0.06190 | 5007 ft | 285 kts | 79° |
| 2026-04-16 11:51 | 51.24203 | 0.09295 | 5013 ft | 286 kts | 79° |
| 2026-04-16 11:51 | 51.24600 | 0.12398 | 5013 ft | 285 kts | 80° |
| 2026-04-16 11:51 | 51.24996 | 0.15490 | 5009 ft | 285 kts | 80° |
| 2026-04-16 11:51 | 51.25393 | 0.18588 | 5006 ft | 285 kts | 80° |
| 2026-04-16 11:52 | 51.25787 | 0.21686 | 5005 ft | 286 kts | 80° |
| 2026-04-16 11:52 | 51.26173 | 0.24793 | 4679 ft | 283 kts | 79° |
| 2026-04-16 11:52 | 51.26905 | 0.27696 | 5140 ft | 287 kts | 55° |
| 2026-04-16 11:52 | 51.28283 | 0.29999 | 5693 ft | 288 kts | 32° |
| 2026-04-16 11:53 | 51.30104 | 0.31210 | 5833 ft | 283 kts | 6° |
| 2026-04-16 11:53 | 51.32035 | 0.31126 | 5882 ft | 277 kts | 344° |
| 2026-04-16 11:53 | 51.33916 | 0.30490 | 6185 ft | 276 kts | 345° |
| 2026-04-16 11:53 | 51.35797 | 0.29876 | 6187 ft | 275 kts | 345° |
| 2026-04-16 11:54 | 51.37678 | 0.29271 | 6183 ft | 277 kts | 345° |
| 2026-04-16 11:54 | 51.39570 | 0.28670 | 6185 ft | 277 kts | 345° |
| 2026-04-16 11:54 | 51.41454 | 0.28077 | 6162 ft | 276 kts | 345° |
| 2026-04-16 11:54 | 51.43339 | 0.27482 | 6167 ft | 276 kts | 345° |
| 2026-04-16 11:55 | 51.45228 | 0.26879 | 6163 ft | 277 kts | 345° |
| 2026-04-16 11:55 | 51.47117 | 0.26278 | 6163 ft | 276 kts | 345° |
| 2026-04-16 11:55 | 51.48995 | 0.25658 | 6162 ft | 275 kts | 341° |
| 2026-04-16 11:55 | 51.50782 | 0.24596 | 6162 ft | 274 kts | 333° |
| 2026-04-16 11:56 | 51.52530 | 0.23406 | 6161 ft | 273 kts | 333° |
| 2026-04-16 11:56 | 51.54285 | 0.22213 | 6167 ft | 273 kts | 333° |
| 2026-04-16 11:56 | 51.56031 | 0.21021 | 6165 ft | 273 kts | 333° |
| 2026-04-16 11:56 | 51.57772 | 0.19831 | 6162 ft | 272 kts | 333° |
| 2026-04-16 11:57 | 51.59520 | 0.18638 | 6162 ft | 274 kts | 333° |
| 2026-04-16 11:57 | 51.61273 | 0.17442 | 6164 ft | 273 kts | 333° |
| 2026-04-16 11:57 | 51.63026 | 0.16247 | 6166 ft | 274 kts | 333° |
| 2026-04-16 11:57 | 51.64751 | 0.14986 | 6159 ft | 270 kts | 326° |
| 2026-04-16 11:58 | 51.66304 | 0.13325 | 6522 ft | 268 kts | 322° |
| 2026-04-16 11:58 | 51.67859 | 0.11625 | 7346 ft | 272 kts | 322° |
| 2026-04-16 11:58 | 51.69439 | 0.09906 | 8251 ft | 276 kts | 322° |
| 2026-04-16 11:58 | 51.71044 | 0.08161 | 9160 ft | 280 kts | 322° |
| 2026-04-16 11:59 | 51.72666 | 0.06396 | 10061 ft | 284 kts | 322° |
| 2026-04-16 11:59 | 51.74335 | 0.04579 | 10679 ft | 297 kts | 322° |
| 2026-04-16 11:59 | 51.76094 | 0.02658 | 11155 ft | 314 kts | 322° |
| 2026-04-16 11:59 | 51.77951 | 0.00629 | 11601 ft | 332 kts | 322° |
| 2026-04-16 12:00 | 51.79912 | -0.01520 | 12043 ft | 347 kts | 322° |
| 2026-04-16 12:00 | 51.81928 | -0.03724 | 12734 ft | 353 kts | 322° |
| 2026-04-16 12:00 | 51.82891 | -0.04778 | 13105 ft | 354 kts | 322° |
| 2026-04-16 12:01 | 51.83856 | -0.05833 | 13500 ft | 355 kts | 322° |
| 2026-04-16 12:01 | 51.85907 | -0.08071 | 14209 ft | 357 kts | 322° |
| 2026-04-16 12:02 | 51.90054 | -0.12610 | 15554 ft | 362 kts | 322° |
| 2026-04-16 12:02 | 51.92143 | -0.14907 | 16215 ft | 364 kts | 321° |
| 2026-04-16 12:02 | 51.94245 | -0.17223 | 16873 ft | 367 kts | 321° |
| 2026-04-16 12:02 | 51.96363 | -0.19560 | 17537 ft | 369 kts | 321° |
| 2026-04-16 12:03 | 51.98490 | -0.21911 | 18208 ft | 372 kts | 321° |
| 2026-04-16 12:03 | 52.00634 | -0.24282 | 18803 ft | 374 kts | 321° |
| 2026-04-16 12:03 | 52.02795 | -0.26673 | 19357 ft | 377 kts | 321° |
| 2026-04-16 12:03 | 52.04969 | -0.29083 | 19910 ft | 380 kts | 321° |
| 2026-04-16 12:04 | 52.07167 | -0.31520 | 20454 ft | 383 kts | 321° |
| 2026-04-16 12:04 | 52.07909 | -0.32342 | 20627 ft | 384 kts | 321° |